createdAt,value
2023-04-18T00:01:47.549Z,47.88
2023-04-18T00:04:18.558Z,49.05
2023-04-18T00:06:53.427Z,50.00
2023-04-18T00:09:21.496Z,53.53
2023-04-18T00:11:48.788Z,53.38
2023-04-18T00:14:16.065Z,57.80
2023-04-18T00:16:44.565Z,56.00
2023-04-18T00:19:12.170Z,60.47
2023-04-18T00:21:48.019Z,59.13
2023-04-18T00:24:21.323Z,59.00
2023-04-18T00:26:49.241Z,60.70
2023-04-18T00:29:17.517Z,61.92
2023-04-18T00:31:44.846Z,60.70
2023-04-18T00:34:12.591Z,62.97
2023-04-18T00:36:39.987Z,60.05
2023-04-18T00:39:07.266Z,65.07
2023-04-18T00:41:35.367Z,75.90
2023-04-18T00:44:02.498Z,71.65
2023-04-18T00:46:29.586Z,67.88
2023-04-18T00:48:59.190Z,81.25
2023-04-18T00:51:26.563Z,87.95
2023-04-18T00:53:54.138Z,86.00
2023-04-18T00:56:21.929Z,87.70
2023-04-18T00:58:49.249Z,89.40
2023-04-18T01:01:16.543Z,86.97
2023-04-18T01:03:44.295Z,81.22
2023-04-18T01:06:11.676Z,84.15
2023-04-18T01:08:38.908Z,89.43
2023-04-18T01:11:06.294Z,90.60
2023-04-18T01:13:33.517Z,82.88
2023-04-18T01:16:00.874Z,81.57
2023-04-18T01:18:27.911Z,78.03
2023-04-18T01:20:57.178Z,75.00
2023-04-18T01:23:24.361Z,84.22
2023-04-18T01:25:52.168Z,83.88
2023-04-18T01:28:20.141Z,89.32
2023-04-18T01:30:47.256Z,84.50
2023-04-18T01:33:14.605Z,82.43
2023-04-18T01:35:41.748Z,79.65
2023-04-18T01:38:09.554Z,76.80
2023-04-18T01:40:36.668Z,70.95
2023-04-18T01:43:03.718Z,63.30
2023-04-18T01:45:30.926Z,60.13
2023-04-18T01:47:58.030Z,50.05
2023-04-18T01:50:25.480Z,45.10
2023-04-18T01:52:52.709Z,39.83
2023-04-18T01:55:19.797Z,43.63
2023-04-18T01:57:47.161Z,37.80
2023-04-18T02:00:14.502Z,29.45
2023-04-18T02:02:41.824Z,30.40
2023-04-18T02:05:09.670Z,30.73
2023-04-18T02:07:36.952Z,27.08
2023-04-18T02:10:04.253Z,26.52
2023-04-18T02:12:32.346Z,26.95
2023-04-18T02:14:59.563Z,22.67
2023-04-18T02:17:26.748Z,23.45
2023-04-18T02:19:53.826Z,23.20
2023-04-18T02:22:20.854Z,23.23
2023-04-18T02:24:48.979Z,22.77
2023-04-18T02:27:16.124Z,23.52
2023-04-18T02:29:43.267Z,22.67
2023-04-18T02:32:10.417Z,21.98
2023-04-18T02:34:37.756Z,21.42
2023-04-18T02:37:04.983Z,19.40
2023-04-18T02:39:32.194Z,20.48
2023-04-18T02:41:59.398Z,20.23
2023-04-18T02:44:26.469Z,23.80
2023-04-18T02:46:53.540Z,20.75
2023-04-18T02:49:20.752Z,21.42
2023-04-18T02:51:48.048Z,21.65
2023-04-18T02:54:15.394Z,23.02
2023-04-18T02:56:43.065Z,22.05
2023-04-18T02:59:10.131Z,22.88
2023-04-18T03:01:37.349Z,22.30
2023-04-18T03:04:04.604Z,26.63
2023-04-18T03:06:32.122Z,26.50
2023-04-18T03:08:59.178Z,29.88
2023-04-18T03:11:26.196Z,34.15
2023-04-18T03:13:53.979Z,35.03
2023-04-18T03:16:21.207Z,29.25
2023-04-18T03:18:48.466Z,32.67
2023-04-18T03:21:15.510Z,34.03
2023-04-18T03:23:42.954Z,29.00
2023-04-18T03:26:10.100Z,30.00
2023-04-18T03:28:37.144Z,28.10
2023-04-18T03:31:04.540Z,27.75
2023-04-18T03:33:31.604Z,28.52
2023-04-18T03:35:59.518Z,31.65
2023-04-18T03:38:26.641Z,28.67
2023-04-18T03:40:54.612Z,28.33
2023-04-18T03:43:21.948Z,22.85
2023-04-18T03:45:49.187Z,26.40
2023-04-18T03:48:16.296Z,28.88
2023-04-18T03:50:43.389Z,27.10
2023-04-18T03:53:10.488Z,29.65
2023-04-18T03:55:37.696Z,29.17
2023-04-18T03:58:05.278Z,31.80
2023-04-18T04:00:32.456Z,29.65
2023-04-18T04:03:00.001Z,32.22
2023-04-18T04:05:27.342Z,35.83
2023-04-18T04:07:54.594Z,34.60
2023-04-18T04:10:24.965Z,32.38
2023-04-18T04:12:52.039Z,31.27
2023-04-18T04:15:19.152Z,30.30
2023-04-18T04:17:47.825Z,30.17
2023-04-18T04:20:15.131Z,33.42
2023-04-18T04:22:42.922Z,29.33
2023-04-18T04:25:10.572Z,25.85
2023-04-18T04:27:39.216Z,26.75
2023-04-18T04:30:07.559Z,27.25
2023-04-18T04:32:34.693Z,23.17
2023-04-18T04:35:01.767Z,25.13
2023-04-18T04:37:28.924Z,25.13
2023-04-18T04:39:57.166Z,30.65
2023-04-18T04:42:25.398Z,31.27
2023-04-18T04:44:53.910Z,30.27
2023-04-18T04:47:21.079Z,34.50
2023-04-18T04:49:48.268Z,37.50
2023-04-18T04:52:15.427Z,31.83
2023-04-18T04:54:43.570Z,33.63
2023-04-18T04:57:10.854Z,33.45
2023-04-18T04:59:37.943Z,36.60
2023-04-18T05:02:06.274Z,35.95
2023-04-18T05:04:33.493Z,48.85
2023-04-18T05:07:00.688Z,52.05
2023-04-18T05:09:27.787Z,48.03
2023-04-18T05:11:54.849Z,60.33
2023-04-18T05:14:21.941Z,50.83
2023-04-18T05:16:49.266Z,45.25
2023-04-18T05:19:16.686Z,49.28
2023-04-18T05:21:44.017Z,37.80
2023-04-18T05:24:12.567Z,26.08
2023-04-18T05:26:40.243Z,27.98
2023-04-18T05:29:07.398Z,26.02
2023-04-18T05:31:38.366Z,28.20
2023-04-18T05:34:06.468Z,28.95
2023-04-18T05:36:33.595Z,30.80
2023-04-18T05:39:04.047Z,46.08
2023-04-18T05:41:31.342Z,45.35
2023-04-18T05:44:05.417Z,43.25
2023-04-18T05:46:36.176Z,41.78
2023-04-18T05:49:04.620Z,41.25
2023-04-18T05:51:33.314Z,37.88
2023-04-18T05:54:00.486Z,39.95
2023-04-18T05:56:27.694Z,33.30
2023-04-18T05:58:54.810Z,38.60
2023-04-18T06:01:21.830Z,42.30
2023-04-18T06:03:49.059Z,30.27
2023-04-18T06:06:16.438Z,35.00
2023-04-18T06:08:43.654Z,25.13
2023-04-18T06:11:10.935Z,22.73
2023-04-18T06:13:38.049Z,25.23
2023-04-18T06:16:06.119Z,27.17
2023-04-18T06:18:33.398Z,24.05
2023-04-18T06:21:00.806Z,23.08
2023-04-18T06:23:27.907Z,19.35
2023-04-18T06:25:55.060Z,17.30
2023-04-18T06:28:22.417Z,17.98
2023-04-18T06:30:49.553Z,16.98
2023-04-18T06:33:16.630Z,19.42
2023-04-18T06:35:43.737Z,19.27
2023-04-18T06:38:13.834Z,19.27
2023-04-18T06:40:40.848Z,17.27
2023-04-18T06:43:08.003Z,21.77
2023-04-18T06:45:35.800Z,19.13
2023-04-18T06:48:03.977Z,26.50
2023-04-18T06:50:31.251Z,21.70
2023-04-18T06:53:00.585Z,23.60
2023-04-18T06:55:27.661Z,29.10
2023-04-18T06:57:55.949Z,25.10
2023-04-18T07:00:23.231Z,30.00
2023-04-18T07:02:50.740Z,26.23
2023-04-18T07:05:18.080Z,20.23
2023-04-18T07:07:45.238Z,17.17
2023-04-18T07:10:26.646Z,18.45
2023-04-18T07:12:55.732Z,20.58
2023-04-18T07:15:24.394Z,16.05
2023-04-18T07:17:51.437Z,14.48
2023-04-18T07:20:21.746Z,18.10
2023-04-18T07:22:52.624Z,11.52
2023-04-18T07:25:19.967Z,11.38
2023-04-18T07:27:47.816Z,11.40
2023-04-18T07:30:15.275Z,11.77
2023-04-18T07:32:42.384Z,12.80
2023-04-18T07:35:33.379Z,13.80
2023-04-18T07:38:01.325Z,15.93
2023-04-18T07:40:28.489Z,19.23
2023-04-18T07:42:55.587Z,20.23
2023-04-18T07:45:22.708Z,22.83
2023-04-18T07:47:53.006Z,14.43
2023-04-18T07:50:20.821Z,15.15
2023-04-18T07:52:48.438Z,15.07
2023-04-18T07:55:16.257Z,16.77
2023-04-18T07:57:45.856Z,19.13
2023-04-18T08:00:14.345Z,15.68
2023-04-18T08:02:42.100Z,14.45
2023-04-18T08:05:10.155Z,18.42
2023-04-18T08:07:37.461Z,15.90
2023-04-18T08:10:05.077Z,14.95
2023-04-18T08:12:32.197Z,12.75
2023-04-18T08:14:59.401Z,12.88
2023-04-18T08:17:26.855Z,10.75
2023-04-18T08:19:54.108Z,12.13
2023-04-18T08:22:21.289Z,11.70
2023-04-18T08:25:01.186Z,12.70
2023-04-18T08:27:31.717Z,13.45
2023-04-18T08:29:58.856Z,14.35
2023-04-18T08:32:26.745Z,11.93
2023-04-18T08:34:53.844Z,12.50
2023-04-18T08:37:20.975Z,13.48
2023-04-18T08:39:50.417Z,12.88
2023-04-18T08:42:19.774Z,14.10
2023-04-18T08:44:47.505Z,12.77
2023-04-18T08:47:18.021Z,15.80
2023-04-18T08:49:45.945Z,14.25
2023-04-18T08:52:19.313Z,13.15
2023-04-18T08:54:47.166Z,13.60
2023-04-18T08:57:18.664Z,16.35
2023-04-18T08:59:51.087Z,14.52
2023-04-18T09:02:19.677Z,12.75
2023-04-18T09:04:49.364Z,15.00
2023-04-18T09:07:17.100Z,11.33
2023-04-18T09:09:47.821Z,12.27
2023-04-18T09:12:18.351Z,15.18
2023-04-18T09:17:15.438Z,21.50
2023-04-18T09:19:54.614Z,19.38
2023-04-18T09:22:22.102Z,18.92
2023-04-18T09:24:53.894Z,37.70
2023-04-18T09:27:23.824Z,14.40
2023-04-18T09:29:52.229Z,11.30
2023-04-18T09:32:25.629Z,14.35
2023-04-18T09:34:58.377Z,12.35
2023-04-18T09:37:26.006Z,14.27
2023-04-18T09:39:53.249Z,15.90
2023-04-18T09:42:20.370Z,16.80
2023-04-18T09:45:06.864Z,17.48
2023-04-18T09:47:37.713Z,16.58
2023-04-18T09:50:06.298Z,14.93
2023-04-18T09:52:38.357Z,21.98
2023-04-18T09:59:01.216Z,12.50
2023-04-18T10:01:28.664Z,13.18
2023-04-18T10:04:00.443Z,14.73
2023-04-18T10:06:28.228Z,15.43
2023-04-18T10:08:55.297Z,16.52
2023-04-18T10:11:24.966Z,18.60
2023-04-18T10:13:55.242Z,20.00
2023-04-18T10:16:22.346Z,17.75
2023-04-18T10:18:52.037Z,21.17
2023-04-18T10:21:19.148Z,18.80
2023-04-18T10:23:49.302Z,17.50
2023-04-18T10:26:16.536Z,11.85
2023-04-18T10:28:53.763Z,13.43
2023-04-18T10:31:25.299Z,13.05
2023-04-18T10:34:18.415Z,11.35
2023-04-18T10:37:13.944Z,10.50
2023-04-18T10:40:06.741Z,11.27
2023-04-18T10:42:48.895Z,14.98
2023-04-18T10:45:25.504Z,10.43
2023-04-18T10:48:21.735Z,11.68
2023-04-18T10:51:16.482Z,12.25
2023-04-18T10:53:56.313Z,12.90
2023-04-18T10:56:28.358Z,11.27
2023-04-18T10:58:57.186Z,11.10
2023-04-18T11:12:10.876Z,12.00
2023-04-18T11:14:47.273Z,9.82
2023-04-18T11:17:30.003Z,12.45
2023-04-18T11:20:07.867Z,11.98
2023-04-18T11:22:59.569Z,12.40
2023-04-18T11:28:30.977Z,14.63
2023-04-18T11:34:58.109Z,15.02
2023-04-18T11:40:32.466Z,16.63
2023-04-18T11:43:10.661Z,16.00
2023-04-18T11:45:41.472Z,15.45
2023-04-18T11:48:08.732Z,15.68
2023-04-18T11:50:37.719Z,15.73
2023-04-18T11:53:08.913Z,14.70
2023-04-18T11:55:36.987Z,14.10
2023-04-18T11:58:05.992Z,14.55
2023-04-18T12:00:47.163Z,13.95
2023-04-18T12:03:19.095Z,13.15
2023-04-18T12:05:58.747Z,16.10
2023-04-18T12:12:12.242Z,12.50
2023-04-18T12:14:42.637Z,11.97
2023-04-18T12:17:10.104Z,13.27
2023-04-18T12:23:14.577Z,11.30
2023-04-18T12:25:44.087Z,10.27
2023-04-18T12:28:15.770Z,10.20
2023-04-18T12:30:46.483Z,10.32
2023-04-18T12:35:41.556Z,9.63
2023-04-18T12:38:10.951Z,10.88
2023-04-18T12:40:42.223Z,10.10
2023-04-18T12:43:10.253Z,10.98
2023-04-18T12:45:38.850Z,10.82
2023-04-18T12:48:07.245Z,10.57
2023-04-18T12:50:34.746Z,11.55
2023-04-18T12:53:03.348Z,13.60
2023-04-18T12:55:30.936Z,10.68
2023-04-18T12:58:01.331Z,12.75
2023-04-18T13:00:30.135Z,16.45
2023-04-18T13:03:00.434Z,11.20
2023-04-18T13:05:30.894Z,9.73
2023-04-18T13:08:12.876Z,9.13
2023-04-18T13:10:44.117Z,10.48
2023-04-18T13:13:11.408Z,11.93
2023-04-18T13:15:38.697Z,10.20
2023-04-18T13:18:07.496Z,12.05
2023-04-18T13:20:35.153Z,15.88
2023-04-18T13:23:06.327Z,12.82
2023-04-18T13:25:34.176Z,10.18
2023-04-18T13:28:01.690Z,11.23
2023-04-18T13:30:29.685Z,8.45
2023-04-18T13:33:02.759Z,7.57
2023-04-18T13:35:31.631Z,9.40
2023-04-18T13:37:59.037Z,10.25
2023-04-18T13:40:27.272Z,12.13
2023-04-18T13:42:54.499Z,8.43
2023-04-18T13:45:22.014Z,9.73
2023-04-18T13:47:49.395Z,7.47
2023-04-18T13:50:17.035Z,10.43
2023-04-18T13:52:44.165Z,11.93
2023-04-18T13:55:11.374Z,8.65
2023-04-18T13:57:38.717Z,10.05
2023-04-18T14:00:06.879Z,13.20
2023-04-18T14:02:34.069Z,9.90
2023-04-18T14:05:03.237Z,11.05
2023-04-18T14:07:31.349Z,7.45
2023-04-18T14:09:59.861Z,16.15
2023-04-18T14:12:27.073Z,9.95
2023-04-18T14:14:54.176Z,7.18
2023-04-18T14:17:21.521Z,7.60
2023-04-18T14:19:51.698Z,7.82
2023-04-18T14:22:18.766Z,7.95
2023-04-18T14:24:46.236Z,8.52
2023-04-18T14:27:13.323Z,9.70
2023-04-18T14:29:44.697Z,9.60
2023-04-18T14:32:12.339Z,13.02
2023-04-18T14:34:39.506Z,15.13
2023-04-18T14:37:11.921Z,9.75
2023-04-18T14:39:42.697Z,9.52
2023-04-18T14:42:09.915Z,9.23
2023-04-18T14:44:40.013Z,13.65
2023-04-18T14:47:11.020Z,6.50
2023-04-18T14:49:38.506Z,9.80
2023-04-18T14:52:05.684Z,10.45
2023-04-18T14:54:34.231Z,8.75
2023-04-18T14:57:25.610Z,9.93
2023-04-18T14:59:54.773Z,10.40
2023-04-18T15:02:25.514Z,5.78
2023-04-18T15:04:53.829Z,4.90
2023-04-18T15:07:21.680Z,8.20
2023-04-18T15:09:54.010Z,5.25
2023-04-18T15:12:21.748Z,5.78
2023-04-18T15:14:50.443Z,7.80
2023-04-18T15:17:17.624Z,6.97
2023-04-18T15:19:47.304Z,8.80
2023-04-18T15:22:18.126Z,7.50
2023-04-18T15:24:45.720Z,8.45
2023-04-18T15:27:13.033Z,11.80
2023-04-18T15:29:40.262Z,16.42
2023-04-18T15:32:07.723Z,12.70
2023-04-18T15:34:35.253Z,13.40
2023-04-18T15:37:03.584Z,10.65
2023-04-18T15:39:31.093Z,11.50
2023-04-18T15:41:59.781Z,8.32
2023-04-18T15:44:27.458Z,11.98
2023-04-18T15:46:54.936Z,16.27
2023-04-18T15:49:22.354Z,11.23
2023-04-18T15:51:49.623Z,17.00
2023-04-18T15:54:17.063Z,16.85
2023-04-18T15:56:45.016Z,13.98
2023-04-18T15:59:13.616Z,28.90
2023-04-18T16:01:41.595Z,27.48
2023-04-18T16:04:09.573Z,12.48
2023-04-18T16:06:37.702Z,15.02
2023-04-18T16:09:07.073Z,12.40
2023-04-18T16:11:34.430Z,14.40
2023-04-18T16:14:01.965Z,22.65
2023-04-18T16:16:29.974Z,27.85
2023-04-18T16:18:57.528Z,35.05
2023-04-18T16:21:24.832Z,41.03
2023-04-18T16:23:52.033Z,28.50
2023-04-18T16:26:19.352Z,32.75
2023-04-18T16:28:48.374Z,32.35
2023-04-18T16:31:16.330Z,50.90
2023-04-18T16:33:45.198Z,59.95
2023-04-18T16:36:12.360Z,62.70
2023-04-18T16:38:43.511Z,66.35
2023-04-18T16:41:10.911Z,63.78
2023-04-18T16:43:39.477Z,51.22
2023-04-18T16:46:06.761Z,49.67
2023-04-18T16:48:34.001Z,50.97
2023-04-18T16:51:01.333Z,41.67
2023-04-18T16:53:28.765Z,39.67
2023-04-18T16:55:56.097Z,39.17
2023-04-18T16:58:23.877Z,39.95
2023-04-18T17:00:53.046Z,23.67
2023-04-18T17:03:20.391Z,21.52
2023-04-18T17:05:47.745Z,22.92
2023-04-18T17:08:17.790Z,22.13
2023-04-18T17:10:45.427Z,13.68
2023-04-18T17:13:12.832Z,16.52
2023-04-18T17:15:41.450Z,24.65
2023-04-18T17:18:09.330Z,34.88
2023-04-18T17:20:48.688Z,29.10
2023-04-18T17:23:16.333Z,18.60
2023-04-18T17:25:51.182Z,39.17
2023-04-18T17:28:28.916Z,55.55
2023-04-18T17:31:03.302Z,73.15
2023-04-18T17:33:31.345Z,66.63
2023-04-18T17:35:58.805Z,72.05
2023-04-18T17:38:26.254Z,66.38
2023-04-18T17:41:03.644Z,58.65
2023-04-18T17:43:35.654Z,74.18
2023-04-18T17:46:04.341Z,59.17
2023-04-18T17:48:31.799Z,76.38
2023-04-18T17:50:59.122Z,63.53
2023-04-18T17:53:31.932Z,70.07
2023-04-18T17:55:59.662Z,111.28
2023-04-18T17:58:28.608Z,87.63
2023-04-18T18:00:56.071Z,147.82
2023-04-18T18:03:23.953Z,140.55
2023-04-18T18:05:56.340Z,90.82
2023-04-18T18:08:23.747Z,66.45
2023-04-18T18:14:12.695Z,67.90
2023-04-18T18:16:40.769Z,60.55
2023-04-18T18:19:15.000Z,62.55
2023-04-18T18:21:50.126Z,59.30
2023-04-18T18:24:18.922Z,51.75
2023-04-18T18:27:04.002Z,56.20
2023-04-18T18:29:48.034Z,56.03
2023-04-18T18:32:15.314Z,51.35
2023-04-18T18:34:50.245Z,47.50
2023-04-18T18:37:26.920Z,43.13
2023-04-18T18:40:00.719Z,42.97
2023-04-18T18:42:28.850Z,41.90
2023-04-18T18:45:08.328Z,37.60
2023-04-18T18:50:17.931Z,37.47
2023-04-18T18:53:02.631Z,40.38
2023-04-18T18:55:31.846Z,48.92
2023-04-18T18:58:00.125Z,82.90
2023-04-18T19:00:27.839Z,93.60
2023-04-18T19:03:09.275Z,89.47
2023-04-18T19:05:48.545Z,73.35
2023-04-18T19:08:18.676Z,39.35
2023-04-18T19:10:46.700Z,59.08
2023-04-18T19:13:14.203Z,47.63
2023-04-18T19:15:52.173Z,29.15
2023-04-18T19:18:34.427Z,26.95
2023-04-18T19:21:08.128Z,22.83
2023-04-18T19:23:44.849Z,23.58
2023-04-18T19:26:17.933Z,22.17
2023-04-18T19:32:33.073Z,25.35
2023-04-18T19:35:00.474Z,25.02
2023-04-18T19:37:27.934Z,38.63
2023-04-18T19:39:58.298Z,45.95
2023-04-18T19:42:29.595Z,43.20
2023-04-18T19:45:03.645Z,47.70
2023-04-18T19:47:34.623Z,56.33
2023-04-18T19:50:10.660Z,48.88
2023-04-18T19:53:01.141Z,43.45
2023-04-18T20:02:03.311Z,61.15
2023-04-18T20:04:47.241Z,55.05
2023-04-18T20:10:12.061Z,58.38
2023-04-18T20:16:04.997Z,62.20
2023-04-18T20:18:32.729Z,57.60
2023-04-18T20:21:19.081Z,50.72
2023-04-18T20:24:03.483Z,51.33
2023-04-18T20:26:31.652Z,52.13
2023-04-18T20:29:01.419Z,58.58
2023-04-18T20:34:15.698Z,67.75
2023-04-18T20:36:44.244Z,60.33
2023-04-18T20:39:25.323Z,58.42
2023-04-18T20:41:59.207Z,45.38
2023-04-18T20:44:31.898Z,49.22
2023-04-18T20:49:48.318Z,40.75
2023-04-18T20:52:16.811Z,43.65
2023-04-18T20:54:44.463Z,43.20
2023-04-18T20:57:41.239Z,49.58
2023-04-18T21:05:35.810Z,46.35
2023-04-18T21:08:03.742Z,52.90
2023-04-18T21:10:31.673Z,62.17
2023-04-18T21:13:17.202Z,66.93
2023-04-18T21:15:59.983Z,71.63
2023-04-18T21:18:27.823Z,65.50
2023-04-18T21:20:55.657Z,56.42
2023-04-18T21:23:26.091Z,58.10
2023-04-18T21:25:58.365Z,48.72
2023-04-18T21:28:27.042Z,53.15
2023-04-18T21:30:58.423Z,55.10
2023-04-18T21:33:27.013Z,63.60
2023-04-18T21:35:57.873Z,61.22
2023-04-18T21:38:33.140Z,61.40
2023-04-18T21:41:15.537Z,61.15
2023-04-18T21:43:46.828Z,56.83
2023-04-18T21:46:15.101Z,66.95
2023-04-18T21:48:45.849Z,76.43
2023-04-18T21:51:14.664Z,75.93
2023-04-18T21:53:42.718Z,72.03
2023-04-18T21:56:11.484Z,68.43
2023-04-18T21:58:38.850Z,57.10
2023-04-18T22:01:11.663Z,54.42
2023-04-18T22:03:39.311Z,49.35
2023-04-18T22:06:09.587Z,50.83
2023-04-18T22:08:38.980Z,44.15
2023-04-18T22:11:06.673Z,43.67
2023-04-18T22:13:34.110Z,39.25
2023-04-18T22:16:05.281Z,40.13
2023-04-18T22:18:37.923Z,36.33
2023-04-18T22:21:05.445Z,28.52
2023-04-18T22:23:41.845Z,32.28
2023-04-18T22:26:09.167Z,28.15
2023-04-18T22:28:36.855Z,28.98
2023-04-18T22:31:04.142Z,30.30
2023-04-18T22:33:31.442Z,49.40
2023-04-18T22:36:00.636Z,51.13
2023-04-18T22:38:31.064Z,57.22
2023-04-18T22:41:01.229Z,54.33
2023-04-18T22:43:29.363Z,58.55
2023-04-18T22:45:56.903Z,58.78
2023-04-18T22:48:25.542Z,57.70
2023-04-18T22:50:53.026Z,54.45
2023-04-18T22:53:20.518Z,57.58
2023-04-18T22:55:55.576Z,53.72
2023-04-18T22:58:22.979Z,46.05
2023-04-18T23:00:51.114Z,51.63
2023-04-18T23:03:18.707Z,53.45
2023-04-18T23:05:46.085Z,48.05
2023-04-18T23:08:13.594Z,55.63
2023-04-18T23:10:43.928Z,46.97
2023-04-18T23:13:11.218Z,45.83
2023-04-18T23:15:41.623Z,44.58
2023-04-18T23:18:09.059Z,45.55
2023-04-18T23:20:37.855Z,45.72
2023-04-18T23:23:05.392Z,50.05
2023-04-18T23:25:42.201Z,47.78
2023-04-18T23:28:13.850Z,46.28
2023-04-18T23:30:47.480Z,44.85
2023-04-18T23:33:14.775Z,47.28
2023-04-18T23:35:41.969Z,49.10
2023-04-18T23:38:09.454Z,47.97
2023-04-18T23:40:36.641Z,46.13
2023-04-18T23:43:07.096Z,48.22
2023-04-18T23:45:36.557Z,47.15
2023-04-18T23:48:07.048Z,54.72
2023-04-18T23:53:05.225Z,58.95
2023-04-18T23:55:32.504Z,62.63
2023-04-18T23:57:59.806Z,64.28
